sensor_id;sensor_type;location;lat;lon;timestamp;temperature;humidity
12460;DHT22;6295;49.452;8.466;2022-08-19T00:01:12;21.30;99.90
12460;DHT22;6295;49.452;8.466;2022-08-19T00:09:19;21.30;99.90
12460;DHT22;6295;49.452;8.466;2022-08-19T00:13:21;21.20;99.90
12460;DHT22;6295;49.452;8.466;2022-08-19T00:17:25;21.20;99.90
12460;DHT22;6295;49.452;8.466;2022-08-19T00:21:27;21.20;99.90
12460;DHT22;6295;49.452;8.466;2022-08-19T00:25:29;21.20;99.90
12460;DHT22;6295;49.452;8.466;2022-08-19T00:29:31;21.20;99.90
12460;DHT22;6295;49.452;8.466;2022-08-19T00:33:35;21.20;99.90
12460;DHT22;6295;49.452;8.466;2022-08-19T00:37:37;21.30;99.90
12460;DHT22;6295;49.452;8.466;2022-08-19T00:41:44;21.30;99.90
12460;DHT22;6295;49.452;8.466;2022-08-19T00:45:48;21.30;99.90
12460;DHT22;6295;49.452;8.466;2022-08-19T00:49:55;21.30;99.90
12460;DHT22;6295;49.452;8.466;2022-08-19T00:53:59;21.30;99.90
12460;DHT22;6295;49.452;8.466;2022-08-19T00:58:05;21.30;99.90
12460;DHT22;6295;49.452;8.466;2022-08-19T01:10:17;21.30;99.90
12460;DHT22;6295;49.452;8.466;2022-08-19T01:14:20;21.30;99.90
12460;DHT22;6295;49.452;8.466;2022-08-19T01:18:22;21.30;99.90
12460;DHT22;6295;49.452;8.466;2022-08-19T01:22:30;21.30;99.90
12460;DHT22;6295;49.452;8.466;2022-08-19T01:26:38;21.30;99.90
12460;DHT22;6295;49.452;8.466;2022-08-19T01:38:48;21.40;99.90
12460;DHT22;6295;49.452;8.466;2022-08-19T01:42:51;21.40;99.90
12460;DHT22;6295;49.452;8.466;2022-08-19T01:54:59;21.30;99.90
12460;DHT22;6295;49.452;8.466;2022-08-19T01:59:05;21.30;99.90
12460;DHT22;6295;49.452;8.466;2022-08-19T02:03:08;21.30;99.90
12460;DHT22;6295;49.452;8.466;2022-08-19T02:07:11;21.30;99.90
12460;DHT22;6295;49.452;8.466;2022-08-19T02:11:22;21.30;99.90
12460;DHT22;6295;49.452;8.466;2022-08-19T02:19:29;21.30;99.90
12460;DHT22;6295;49.452;8.466;2022-08-19T02:23:32;21.30;99.90
12460;DHT22;6295;49.452;8.466;2022-08-19T02:27:36;21.30;99.90
12460;DHT22;6295;49.452;8.466;2022-08-19T02:31:38;21.30;99.90
12460;DHT22;6295;49.452;8.466;2022-08-19T02:35:41;21.20;99.90
12460;DHT22;6295;49.452;8.466;2022-08-19T02:43:47;21.20;99.90
12460;DHT22;6295;49.452;8.466;2022-08-19T02:47:50;21.20;99.90
12460;DHT22;6295;49.452;8.466;2022-08-19T02:51:52;21.10;99.90
12460;DHT22;6295;49.452;8.466;2022-08-19T02:59:58;21.00;99.90
12460;DHT22;6295;49.452;8.466;2022-08-19T03:04:03;21.00;99.90
12460;DHT22;6295;49.452;8.466;2022-08-19T03:08:06;21.00;99.90
12460;DHT22;6295;49.452;8.466;2022-08-19T03:12:08;21.00;99.90
12460;DHT22;6295;49.452;8.466;2022-08-19T03:16:12;20.90;99.90
12460;DHT22;6295;49.452;8.466;2022-08-19T03:20:14;20.90;99.90
12460;DHT22;6295;49.452;8.466;2022-08-19T03:24:18;20.90;99.90
12460;DHT22;6295;49.452;8.466;2022-08-19T03:28:21;20.90;99.90
12460;DHT22;6295;49.452;8.466;2022-08-19T03:36:27;21.00;99.90
12460;DHT22;6295;49.452;8.466;2022-08-19T03:40:29;21.00;99.90
12460;DHT22;6295;49.452;8.466;2022-08-19T03:44:32;20.90;99.90
12460;DHT22;6295;49.452;8.466;2022-08-19T03:48:36;20.90;99.90
12460;DHT22;6295;49.452;8.466;2022-08-19T03:52:39;20.90;99.90
12460;DHT22;6295;49.452;8.466;2022-08-19T03:56:42;20.90;99.90
12460;DHT22;6295;49.452;8.466;2022-08-19T04:00:45;20.90;99.90
12460;DHT22;6295;49.452;8.466;2022-08-19T04:04:48;20.80;99.90
12460;DHT22;6295;49.452;8.466;2022-08-19T04:12:54;20.80;99.90
12460;DHT22;6295;49.452;8.466;2022-08-19T04:16:56;20.80;99.90
12460;DHT22;6295;49.452;8.466;2022-08-19T04:21:00;20.80;99.90
12460;DHT22;6295;49.452;8.466;2022-08-19T04:25:02;20.80;99.90
12460;DHT22;6295;49.452;8.466;2022-08-19T04:29:07;20.80;99.90
12460;DHT22;6295;49.452;8.466;2022-08-19T04:33:10;20.80;99.90
12460;DHT22;6295;49.452;8.466;2022-08-19T04:37:14;20.80;99.90
12460;DHT22;6295;49.452;8.466;2022-08-19T04:41:16;20.80;99.90
12460;DHT22;6295;49.452;8.466;2022-08-19T04:45:36;20.80;99.90
12460;DHT22;6295;49.452;8.466;2022-08-19T04:53:43;20.80;99.90
12460;DHT22;6295;49.452;8.466;2022-08-19T04:57:45;20.80;99.90
12460;DHT22;6295;49.452;8.466;2022-08-19T05:01:48;20.80;99.90
12460;DHT22;6295;49.452;8.466;2022-08-19T05:05:50;20.80;99.90
12460;DHT22;6295;49.452;8.466;2022-08-19T05:13:57;20.90;99.90
12460;DHT22;6295;49.452;8.466;2022-08-19T05:17:59;21.00;99.90
12460;DHT22;6295;49.452;8.466;2022-08-19T05:22:18;21.00;99.90
12460;DHT22;6295;49.452;8.466;2022-08-19T05:30:40;21.00;99.90
12460;DHT22;6295;49.452;8.466;2022-08-19T05:34:44;21.10;99.90
12460;DHT22;6295;49.452;8.466;2022-08-19T05:38:46;21.10;99.90
12460;DHT22;6295;49.452;8.466;2022-08-19T05:42:52;21.10;99.90
12460;DHT22;6295;49.452;8.466;2022-08-19T05:50:56;21.20;99.90
12460;DHT22;6295;49.452;8.466;2022-08-19T05:54:59;21.30;99.90
12460;DHT22;6295;49.452;8.466;2022-08-19T06:03:11;21.40;99.90
12460;DHT22;6295;49.452;8.466;2022-08-19T06:11:18;21.40;99.90
12460;DHT22;6295;49.452;8.466;2022-08-19T06:15:22;21.50;99.90
12460;DHT22;6295;49.452;8.466;2022-08-19T06:19:30;21.50;99.90
12460;DHT22;6295;49.452;8.466;2022-08-19T06:27:36;21.50;99.90
12460;DHT22;6295;49.452;8.466;2022-08-19T06:39:48;21.60;99.90
12460;DHT22;6295;49.452;8.466;2022-08-19T06:43:50;21.60;99.90
12460;DHT22;6295;49.452;8.466;2022-08-19T06:47:54;21.60;99.90
12460;DHT22;6295;49.452;8.466;2022-08-19T06:51:57;21.60;99.90
12460;DHT22;6295;49.452;8.466;2022-08-19T07:00:04;21.70;99.90
12460;DHT22;6295;49.452;8.466;2022-08-19T07:04:14;21.70;99.90
12460;DHT22;6295;49.452;8.466;2022-08-19T07:12:19;21.80;99.90
12460;DHT22;6295;49.452;8.466;2022-08-19T07:16:21;21.80;99.90
12460;DHT22;6295;49.452;8.466;2022-08-19T07:20:24;21.90;99.90
12460;DHT22;6295;49.452;8.466;2022-08-19T07:24:27;21.90;99.90
12460;DHT22;6295;49.452;8.466;2022-08-19T07:28:29;21.90;99.90
12460;DHT22;6295;49.452;8.466;2022-08-19T07:36:38;22.10;99.90
12460;DHT22;6295;49.452;8.466;2022-08-19T07:40:41;22.20;99.90
12460;DHT22;6295;49.452;8.466;2022-08-19T07:48:47;22.40;99.90
12460;DHT22;6295;49.452;8.466;2022-08-19T07:52:52;22.40;99.90
12460;DHT22;6295;49.452;8.466;2022-08-19T07:56:54;22.40;99.90
12460;DHT22;6295;49.452;8.466;2022-08-19T08:00:59;22.50;99.90
12460;DHT22;6295;49.452;8.466;2022-08-19T08:05:03;22.60;99.90
12460;DHT22;6295;49.452;8.466;2022-08-19T08:09:27;22.60;99.90
12460;DHT22;6295;49.452;8.466;2022-08-19T08:13:32;22.80;99.90
12460;DHT22;6295;49.452;8.466;2022-08-19T08:17:36;22.80;99.90
12460;DHT22;6295;49.452;8.466;2022-08-19T08:21:39;22.90;99.90
12460;DHT22;6295;49.452;8.466;2022-08-19T08:25:42;22.90;99.90
12460;DHT22;6295;49.452;8.466;2022-08-19T08:29:46;22.90;99.90
12460;DHT22;6295;49.452;8.466;2022-08-19T08:33:49;23.10;99.90
12460;DHT22;6295;49.452;8.466;2022-08-19T08:37:54;23.00;99.90
12460;DHT22;6295;49.452;8.466;2022-08-19T08:46:11;23.30;99.90
12460;DHT22;6295;49.452;8.466;2022-08-19T08:50:19;23.40;99.90
12460;DHT22;6295;49.452;8.466;2022-08-19T08:58:41;23.70;99.90
12460;DHT22;6295;49.452;8.466;2022-08-19T09:07:10;24.10;99.90
12460;DHT22;6295;49.452;8.466;2022-08-19T09:11:20;24.20;99.90
12460;DHT22;6295;49.452;8.466;2022-08-19T09:15:31;24.20;99.90
12460;DHT22;6295;49.452;8.466;2022-08-19T09:23:38;24.30;99.90
12460;DHT22;6295;49.452;8.466;2022-08-19T09:27:42;24.40;99.90
12460;DHT22;6295;49.452;8.466;2022-08-19T09:35:48;24.60;99.90
12460;DHT22;6295;49.452;8.466;2022-08-19T09:39:52;24.70;99.90
12460;DHT22;6295;49.452;8.466;2022-08-19T09:43:56;24.70;99.90
12460;DHT22;6295;49.452;8.466;2022-08-19T09:48:00;24.80;99.90
12460;DHT22;6295;49.452;8.466;2022-08-19T09:52:03;24.80;99.90
12460;DHT22;6295;49.452;8.466;2022-08-19T09:56:06;24.70;99.90
12460;DHT22;6295;49.452;8.466;2022-08-19T10:00:10;24.70;99.90
12460;DHT22;6295;49.452;8.466;2022-08-19T10:04:13;24.70;99.90
12460;DHT22;6295;49.452;8.466;2022-08-19T10:08:17;24.60;99.90
12460;DHT22;6295;49.452;8.466;2022-08-19T10:12:19;24.70;99.90
12460;DHT22;6295;49.452;8.466;2022-08-19T10:16:22;24.80;99.90
12460;DHT22;6295;49.452;8.466;2022-08-19T10:20:27;25.00;99.90
12460;DHT22;6295;49.452;8.466;2022-08-19T10:24:30;25.00;99.90
12460;DHT22;6295;49.452;8.466;2022-08-19T10:28:34;25.00;99.90
12460;DHT22;6295;49.452;8.466;2022-08-19T10:32:39;25.10;99.90
12460;DHT22;6295;49.452;8.466;2022-08-19T10:36:43;25.30;99.90
12460;DHT22;6295;49.452;8.466;2022-08-19T10:40:46;25.40;99.90
12460;DHT22;6295;49.452;8.466;2022-08-19T10:52:54;25.30;99.90
12460;DHT22;6295;49.452;8.466;2022-08-19T10:56:56;25.30;99.90
12460;DHT22;6295;49.452;8.466;2022-08-19T11:00:58;25.30;99.90
12460;DHT22;6295;49.452;8.466;2022-08-19T11:05:01;25.20;99.90
12460;DHT22;6295;49.452;8.466;2022-08-19T11:13:07;25.10;99.90
12460;DHT22;6295;49.452;8.466;2022-08-19T11:17:09;25.10;99.90
12460;DHT22;6295;49.452;8.466;2022-08-19T11:21:17;25.30;99.90
12460;DHT22;6295;49.452;8.466;2022-08-19T11:25:23;25.50;99.90
12460;DHT22;6295;49.452;8.466;2022-08-19T11:37:34;26.10;99.90
12460;DHT22;6295;49.452;8.466;2022-08-19T11:45:45;26.40;99.90
12460;DHT22;6295;49.452;8.466;2022-08-19T11:49:50;26.30;99.90
12460;DHT22;6295;49.452;8.466;2022-08-19T11:53:55;26.40;99.90
12460;DHT22;6295;49.452;8.466;2022-08-19T11:57:59;26.50;99.30
12460;DHT22;6295;49.452;8.466;2022-08-19T12:02:02;26.60;98.80
12460;DHT22;6295;49.452;8.466;2022-08-19T12:06:05;26.70;98.30
12460;DHT22;6295;49.452;8.466;2022-08-19T12:10:08;26.60;97.10
12460;DHT22;6295;49.452;8.466;2022-08-19T12:14:13;26.60;97.20
12460;DHT22;6295;49.452;8.466;2022-08-19T12:18:16;26.70;97.70
12460;DHT22;6295;49.452;8.466;2022-08-19T12:22:18;26.90;97.90
12460;DHT22;6295;49.452;8.466;2022-08-19T12:26:21;27.10;96.60
12460;DHT22;6295;49.452;8.466;2022-08-19T12:30:25;27.10;95.80
12460;DHT22;6295;49.452;8.466;2022-08-19T12:34:29;27.00;94.90
12460;DHT22;6295;49.452;8.466;2022-08-19T12:38:32;26.90;94.30
12460;DHT22;6295;49.452;8.466;2022-08-19T12:42:35;26.90;93.40
12460;DHT22;6295;49.452;8.466;2022-08-19T12:46:39;27.10;94.30
12460;DHT22;6295;49.452;8.466;2022-08-19T12:50:42;27.20;93.70
12460;DHT22;6295;49.452;8.466;2022-08-19T12:54:46;27.50;92.60
12460;DHT22;6295;49.452;8.466;2022-08-19T12:58:48;27.60;92.30
12460;DHT22;6295;49.452;8.466;2022-08-19T13:02:52;27.70;92.20
12460;DHT22;6295;49.452;8.466;2022-08-19T13:06:54;27.80;91.00
12460;DHT22;6295;49.452;8.466;2022-08-19T13:10:56;27.90;91.40
12460;DHT22;6295;49.452;8.466;2022-08-19T13:14:58;28.10;92.60
12460;DHT22;6295;49.452;8.466;2022-08-19T13:19:02;28.10;91.40
12460;DHT22;6295;49.452;8.466;2022-08-19T13:23:05;28.20;90.30
12460;DHT22;6295;49.452;8.466;2022-08-19T13:27:08;28.20;90.90
12460;DHT22;6295;49.452;8.466;2022-08-19T13:31:10;28.30;91.50
12460;DHT22;6295;49.452;8.466;2022-08-19T13:35:30;28.40;91.40
12460;DHT22;6295;49.452;8.466;2022-08-19T13:39:33;28.40;90.70
12460;DHT22;6295;49.452;8.466;2022-08-19T13:43:37;28.50;90.60
12460;DHT22;6295;49.452;8.466;2022-08-19T13:47:41;28.60;90.10
12460;DHT22;6295;49.452;8.466;2022-08-19T13:51:48;28.70;90.20
12460;DHT22;6295;49.452;8.466;2022-08-19T14:03:58;28.40;89.20
12460;DHT22;6295;49.452;8.466;2022-08-19T14:08:03;28.40;89.20
12460;DHT22;6295;49.452;8.466;2022-08-19T14:12:06;28.60;88.80
12460;DHT22;6295;49.452;8.466;2022-08-19T14:16:09;28.80;86.30
12460;DHT22;6295;49.452;8.466;2022-08-19T14:20:13;28.80;86.50
12460;DHT22;6295;49.452;8.466;2022-08-19T14:24:17;28.80;83.20
12460;DHT22;6295;49.452;8.466;2022-08-19T14:28:19;28.90;84.80
12460;DHT22;6295;49.452;8.466;2022-08-19T14:32:21;28.90;83.40
12460;DHT22;6295;49.452;8.466;2022-08-19T14:36:23;29.10;83.00
12460;DHT22;6295;49.452;8.466;2022-08-19T14:40:30;29.10;82.50
12460;DHT22;6295;49.452;8.466;2022-08-19T14:44:33;29.20;79.90
12460;DHT22;6295;49.452;8.466;2022-08-19T14:48:36;29.10;81.50
12460;DHT22;6295;49.452;8.466;2022-08-19T14:56:43;29.20;79.50
12460;DHT22;6295;49.452;8.466;2022-08-19T15:00:45;29.20;80.70
12460;DHT22;6295;49.452;8.466;2022-08-19T15:04:48;29.10;81.00
12460;DHT22;6295;49.452;8.466;2022-08-19T15:08:52;29.20;80.00
12460;DHT22;6295;49.452;8.466;2022-08-19T15:12:56;29.10;79.70
12460;DHT22;6295;49.452;8.466;2022-08-19T15:16:59;29.00;80.00
12460;DHT22;6295;49.452;8.466;2022-08-19T15:21:02;28.90;80.60
12460;DHT22;6295;49.452;8.466;2022-08-19T15:25:07;28.70;80.10
12460;DHT22;6295;49.452;8.466;2022-08-19T15:29:12;28.70;80.70
12460;DHT22;6295;49.452;8.466;2022-08-19T15:33:17;28.60;80.60
12460;DHT22;6295;49.452;8.466;2022-08-19T15:45:30;28.60;81.40
12460;DHT22;6295;49.452;8.466;2022-08-19T15:49:33;28.60;81.00
12460;DHT22;6295;49.452;8.466;2022-08-19T15:53:36;28.60;81.50
12460;DHT22;6295;49.452;8.466;2022-08-19T15:57:40;28.60;81.00
12460;DHT22;6295;49.452;8.466;2022-08-19T16:02:02;28.50;81.30
12460;DHT22;6295;49.452;8.466;2022-08-19T16:06:19;28.50;79.60
12460;DHT22;6295;49.452;8.466;2022-08-19T16:14:32;28.50;79.20
12460;DHT22;6295;49.452;8.466;2022-08-19T16:18:38;28.30;79.80
12460;DHT22;6295;49.452;8.466;2022-08-19T16:22:42;28.30;81.40
12460;DHT22;6295;49.452;8.466;2022-08-19T16:26:46;28.30;83.30
12460;DHT22;6295;49.452;8.466;2022-08-19T16:30:51;28.20;82.40
12460;DHT22;6295;49.452;8.466;2022-08-19T16:39:01;28.00;82.30
12460;DHT22;6295;49.452;8.466;2022-08-19T16:43:05;27.90;81.60
12460;DHT22;6295;49.452;8.466;2022-08-19T16:47:10;27.90;83.00
12460;DHT22;6295;49.452;8.466;2022-08-19T16:51:15;27.90;82.30
12460;DHT22;6295;49.452;8.466;2022-08-19T16:55:18;27.90;83.50
12460;DHT22;6295;49.452;8.466;2022-08-19T17:07:29;27.80;85.00
12460;DHT22;6295;49.452;8.466;2022-08-19T17:11:34;27.80;84.50
12460;DHT22;6295;49.452;8.466;2022-08-19T17:15:39;27.70;84.30
12460;DHT22;6295;49.452;8.466;2022-08-19T17:19:43;27.60;85.20
12460;DHT22;6295;49.452;8.466;2022-08-19T17:23:50;27.60;86.10
12460;DHT22;6295;49.452;8.466;2022-08-19T17:27:56;27.50;86.70
12460;DHT22;6295;49.452;8.466;2022-08-19T17:32:00;27.50;86.70
12460;DHT22;6295;49.452;8.466;2022-08-19T17:36:06;27.50;87.60
12460;DHT22;6295;49.452;8.466;2022-08-19T17:40:11;27.30;87.40
12460;DHT22;6295;49.452;8.466;2022-08-19T17:48:15;27.30;86.40
12460;DHT22;6295;49.452;8.466;2022-08-19T17:52:17;27.30;86.00
12460;DHT22;6295;49.452;8.466;2022-08-19T17:56:21;27.30;86.30
12460;DHT22;6295;49.452;8.466;2022-08-19T18:00:24;27.30;88.20
12460;DHT22;6295;49.452;8.466;2022-08-19T18:04:26;27.20;87.80
12460;DHT22;6295;49.452;8.466;2022-08-19T18:08:29;27.20;87.90
12460;DHT22;6295;49.452;8.466;2022-08-19T18:16:37;27.10;88.40
12460;DHT22;6295;49.452;8.466;2022-08-19T18:28:45;26.90;89.30
12460;DHT22;6295;49.452;8.466;2022-08-19T18:32:49;26.90;90.00
12460;DHT22;6295;49.452;8.466;2022-08-19T18:36:52;26.80;89.20
12460;DHT22;6295;49.452;8.466;2022-08-19T18:45:17;26.80;90.00
12460;DHT22;6295;49.452;8.466;2022-08-19T18:49:37;26.70;90.30
12460;DHT22;6295;49.452;8.466;2022-08-19T18:53:45;26.60;90.50
12460;DHT22;6295;49.452;8.466;2022-08-19T19:01:53;26.50;90.80
12460;DHT22;6295;49.452;8.466;2022-08-19T19:05:56;26.40;90.50
12460;DHT22;6295;49.452;8.466;2022-08-19T19:09:58;26.40;90.60
12460;DHT22;6295;49.452;8.466;2022-08-19T19:14:02;26.30;90.80
12460;DHT22;6295;49.452;8.466;2022-08-19T19:18:06;26.10;90.90
12460;DHT22;6295;49.452;8.466;2022-08-19T19:22:11;26.10;91.10
12460;DHT22;6295;49.452;8.466;2022-08-19T19:26:14;26.10;91.10
12460;DHT22;6295;49.452;8.466;2022-08-19T19:30:16;26.00;91.20
12460;DHT22;6295;49.452;8.466;2022-08-19T19:34:21;25.90;90.90
12460;DHT22;6295;49.452;8.466;2022-08-19T19:38:23;25.90;91.00
12460;DHT22;6295;49.452;8.466;2022-08-19T19:42:25;25.90;91.00
12460;DHT22;6295;49.452;8.466;2022-08-19T19:46:29;25.90;91.10
12460;DHT22;6295;49.452;8.466;2022-08-19T19:50:34;25.80;90.80
12460;DHT22;6295;49.452;8.466;2022-08-19T19:54:39;25.70;90.80
12460;DHT22;6295;49.452;8.466;2022-08-19T19:58:43;25.70;90.90
12460;DHT22;6295;49.452;8.466;2022-08-19T20:02:46;25.60;90.80
12460;DHT22;6295;49.452;8.466;2022-08-19T20:06:53;25.60;91.00
12460;DHT22;6295;49.452;8.466;2022-08-19T20:11:00;25.60;91.10
12460;DHT22;6295;49.452;8.466;2022-08-19T20:15:03;25.40;90.90
12460;DHT22;6295;49.452;8.466;2022-08-19T20:19:06;25.40;91.00
12460;DHT22;6295;49.452;8.466;2022-08-19T20:23:10;25.30;91.10
12460;DHT22;6295;49.452;8.466;2022-08-19T20:27:12;25.30;90.80
12460;DHT22;6295;49.452;8.466;2022-08-19T20:35:21;25.20;90.70
12460;DHT22;6295;49.452;8.466;2022-08-19T20:39:26;25.00;90.80
12460;DHT22;6295;49.452;8.466;2022-08-19T20:43:30;25.00;90.90
12460;DHT22;6295;49.452;8.466;2022-08-19T20:47:34;25.00;91.00
12460;DHT22;6295;49.452;8.466;2022-08-19T20:55:42;24.80;91.10
12460;DHT22;6295;49.452;8.466;2022-08-19T20:59:45;24.70;91.20
12460;DHT22;6295;49.452;8.466;2022-08-19T21:07:51;24.60;91.40
12460;DHT22;6295;49.452;8.466;2022-08-19T21:15:57;24.40;91.30
12460;DHT22;6295;49.452;8.466;2022-08-19T21:19:59;24.40;91.50
12460;DHT22;6295;49.452;8.466;2022-08-19T21:24:01;24.30;91.70
12460;DHT22;6295;49.452;8.466;2022-08-19T21:28:05;24.20;91.60
12460;DHT22;6295;49.452;8.466;2022-08-19T21:32:07;24.20;91.80
12460;DHT22;6295;49.452;8.466;2022-08-19T21:36:11;24.20;91.90
12460;DHT22;6295;49.452;8.466;2022-08-19T21:40:13;24.10;92.10
12460;DHT22;6295;49.452;8.466;2022-08-19T21:44:17;24.10;92.30
12460;DHT22;6295;49.452;8.466;2022-08-19T21:48:19;24.00;92.40
12460;DHT22;6295;49.452;8.466;2022-08-19T21:52:22;24.00;92.60
12460;DHT22;6295;49.452;8.466;2022-08-19T21:56:24;23.90;92.80
12460;DHT22;6295;49.452;8.466;2022-08-19T22:00:30;23.80;92.90
12460;DHT22;6295;49.452;8.466;2022-08-19T22:04:33;23.80;93.10
12460;DHT22;6295;49.452;8.466;2022-08-19T22:08:35;23.70;93.30
12460;DHT22;6295;49.452;8.466;2022-08-19T22:16:43;23.50;94.00
12460;DHT22;6295;49.452;8.466;2022-08-19T22:20:47;23.50;94.20
12460;DHT22;6295;49.452;8.466;2022-08-19T22:28:52;23.30;94.70
12460;DHT22;6295;49.452;8.466;2022-08-19T22:32:56;23.20;95.00
12460;DHT22;6295;49.452;8.466;2022-08-19T22:37:00;23.10;95.20
12460;DHT22;6295;49.452;8.466;2022-08-19T22:41:02;23.00;95.40
12460;DHT22;6295;49.452;8.466;2022-08-19T22:45:06;23.00;95.70
12460;DHT22;6295;49.452;8.466;2022-08-19T22:49:10;22.80;95.70
12460;DHT22;6295;49.452;8.466;2022-08-19T22:57:15;22.80;96.00
12460;DHT22;6295;49.452;8.466;2022-08-19T23:01:20;22.70;96.10
12460;DHT22;6295;49.452;8.466;2022-08-19T23:05:26;22.60;96.20
12460;DHT22;6295;49.452;8.466;2022-08-19T23:09:29;22.60;96.40
12460;DHT22;6295;49.452;8.466;2022-08-19T23:13:31;22.50;96.50
12460;DHT22;6295;49.452;8.466;2022-08-19T23:17:34;22.50;96.80
12460;DHT22;6295;49.452;8.466;2022-08-19T23:21:38;22.50;97.20
12460;DHT22;6295;49.452;8.466;2022-08-19T23:25:40;22.50;97.90
12460;DHT22;6295;49.452;8.466;2022-08-19T23:29:43;22.40;98.50
12460;DHT22;6295;49.452;8.466;2022-08-19T23:34:02;22.20;99.10
12460;DHT22;6295;49.452;8.466;2022-08-19T23:42:10;22.00;99.70
12460;DHT22;6295;49.452;8.466;2022-08-19T23:46:14;21.90;99.90
12460;DHT22;6295;49.452;8.466;2022-08-19T23:50:19;21.80;99.90
12460;DHT22;6295;49.452;8.466;2022-08-19T23:54:23;21.80;99.90
12460;DHT22;6295;49.452;8.466;2022-08-19T23:58:25;21.70;99.90
